CAL132 RCKH-ROAH
Flight info
| Callsign | CAL132 |
|---|---|
| Flight time | 1h 11m |
| Altitude | 37000 |
| Route | HCN2A HCN J7 PICHU Q13 IGURU Y57 VELNO |
| Aircraft | B77W/H-SDE1E2E3FGHIJ1J2J3J5M1P2RWY/LB1D1 |
Departure
| Time | 2026-04-14 15:30 |
|---|---|
| Airport | Kaohsiung International Airport (RCKH) |
Arrival
| Time | 2026-04-14 16:42 |
|---|---|
| Airport | Naha International Airport (ROAH) |
| Time | Latitude | Longitude | Altitude | Speed | Heading |
|---|---|---|---|---|---|
| 2026-04-14 15:08 | 22.57195 | 120.34232 | 43 ft | 0 kts | 271° |
| 2026-04-14 15:18 | 22.57194 | 120.34254 | 43 ft | 4 kts | 268° |
| 2026-04-14 15:19 | 22.57196 | 120.34283 | 43 ft | 4 kts | 261° |
| 2026-04-14 15:19 | 22.57203 | 120.34310 | 42 ft | 4 kts | 236° |
| 2026-04-14 15:19 | 22.57219 | 120.34324 | 43 ft | 2 kts | 181° |
| 2026-04-14 15:19 | 22.57245 | 120.34324 | 42 ft | 4 kts | 181° |
| 2026-04-14 15:20 | 22.57272 | 120.34325 | 40 ft | 4 kts | 181° |
| 2026-04-14 15:20 | 22.57299 | 120.34325 | 43 ft | 4 kts | 181° |
| 2026-04-14 15:20 | 22.57327 | 120.34325 | 43 ft | 4 kts | 181° |
| 2026-04-14 15:20 | 22.57354 | 120.34326 | 42 ft | 4 kts | 181° |
| 2026-04-14 15:21 | 22.57377 | 120.34326 | 43 ft | 2 kts | 180° |
| 2026-04-14 15:21 | 22.57397 | 120.34330 | 43 ft | 4 kts | 237° |
| 2026-04-14 15:21 | 22.57401 | 120.34356 | 41 ft | 4 kts | 274° |
| 2026-04-14 15:21 | 22.57400 | 120.34378 | 43 ft | 4 kts | 272° |
| 2026-04-14 15:22 | 22.57399 | 120.34407 | 40 ft | 3 kts | 272° |
| 2026-04-14 15:22 | 22.57399 | 120.34410 | 43 ft | 0 kts | 272° |
| 2026-04-14 15:26 | 22.57399 | 120.34408 | 43 ft | 1 kts | 272° |
| 2026-04-14 15:26 | 22.57400 | 120.34391 | 43 ft | 3 kts | 272° |
| 2026-04-14 15:26 | 22.57401 | 120.34357 | 43 ft | 6 kts | 272° |
| 2026-04-14 15:27 | 22.57402 | 120.34308 | 43 ft | 8 kts | 272° |
| 2026-04-14 15:27 | 22.57404 | 120.34244 | 43 ft | 9 kts | 272° |
| 2026-04-14 15:27 | 22.57407 | 120.34166 | 43 ft | 11 kts | 272° |
| 2026-04-14 15:27 | 22.57409 | 120.34077 | 43 ft | 13 kts | 271° |
| 2026-04-14 15:28 | 22.57412 | 120.33976 | 43 ft | 14 kts | 271° |
| 2026-04-14 15:28 | 22.57415 | 120.33864 | 43 ft | 16 kts | 272° |
| 2026-04-14 15:28 | 22.57419 | 120.33743 | 43 ft | 17 kts | 272° |
| 2026-04-14 15:28 | 22.57477 | 120.33637 | 43 ft | 17 kts | 317° |
| 2026-04-14 15:29 | 22.57567 | 120.33547 | 43 ft | 18 kts | 318° |
| 2026-04-14 15:29 | 22.57636 | 120.33505 | 42 ft | 10 kts | 352° |
| 2026-04-14 15:29 | 22.57713 | 120.33507 | 42 ft | 11 kts | 6° |
| 2026-04-14 15:29 | 22.57751 | 120.33557 | 43 ft | 10 kts | 91° |
| 2026-04-14 15:30 | 22.57748 | 120.33689 | 43 ft | 33 kts | 91° |
| 2026-04-14 15:30 | 22.57731 | 120.34220 | 44 ft | 111 kts | 91° |
| 2026-04-14 15:30 | 22.57695 | 120.35324 | 49 ft | 178 kts | 90° |
| 2026-04-14 15:30 | 22.57660 | 120.36697 | 661 ft | 185 kts | 90° |
| 2026-04-14 15:31 | 22.57614 | 120.38100 | 1349 ft | 189 kts | 97° |
| 2026-04-14 15:31 | 22.56998 | 120.39421 | 1592 ft | 213 kts | 142° |
| 2026-04-14 15:31 | 22.55594 | 120.39894 | 2099 ft | 221 kts | 188° |
| 2026-04-14 15:31 | 22.54239 | 120.39193 | 2768 ft | 221 kts | 230° |
| 2026-04-14 15:32 | 22.53420 | 120.37791 | 3397 ft | 222 kts | 234° |
| 2026-04-14 15:32 | 22.52303 | 120.36613 | 4044 ft | 227 kts | 221° |
| 2026-04-14 15:32 | 22.51098 | 120.35482 | 4779 ft | 230 kts | 224° |
| 2026-04-14 15:32 | 22.49919 | 120.34315 | 5498 ft | 231 kts | 224° |
| 2026-04-14 15:33 | 22.48526 | 120.33395 | 5911 ft | 251 kts | 194° |
| 2026-04-14 15:33 | 22.46712 | 120.33503 | 6158 ft | 278 kts | 158° |
| 2026-04-14 15:33 | 22.45106 | 120.34719 | 6698 ft | 287 kts | 137° |
| 2026-04-14 15:33 | 22.43636 | 120.36179 | 7375 ft | 294 kts | 138° |
| 2026-04-14 15:34 | 22.42106 | 120.37698 | 8204 ft | 296 kts | 138° |
| 2026-04-14 15:34 | 22.40598 | 120.39184 | 9079 ft | 297 kts | 139° |
| 2026-04-14 15:34 | 22.39038 | 120.40707 | 9926 ft | 300 kts | 140° |
| 2026-04-14 15:34 | 22.37465 | 120.42228 | 10554 ft | 311 kts | 140° |
| 2026-04-14 15:35 | 22.35802 | 120.43822 | 10765 ft | 338 kts | 140° |
| 2026-04-14 15:35 | 22.33969 | 120.45569 | 10965 ft | 365 kts | 140° |
| 2026-04-14 15:35 | 22.32011 | 120.47429 | 11368 ft | 383 kts | 140° |
| 2026-04-14 15:35 | 22.29986 | 120.49352 | 12091 ft | 392 kts | 140° |
| 2026-04-14 15:36 | 22.27923 | 120.51308 | 13008 ft | 396 kts | 140° |
| 2026-04-14 15:36 | 22.25840 | 120.53278 | 13890 ft | 402 kts | 140° |
| 2026-04-14 15:36 | 22.23721 | 120.55281 | 14667 ft | 407 kts | 140° |
| 2026-04-14 15:36 | 22.21578 | 120.57303 | 15432 ft | 412 kts | 141° |
| 2026-04-14 15:37 | 22.19405 | 120.59355 | 16197 ft | 418 kts | 141° |
| 2026-04-14 15:37 | 22.17919 | 120.60757 | 16704 ft | 422 kts | 141° |
| 2026-04-14 15:37 | 22.15723 | 120.62828 | 17454 ft | 427 kts | 141° |
| 2026-04-14 15:37 | 22.12708 | 120.65671 | 18419 ft | 434 kts | 141° |
| 2026-04-14 15:38 | 22.11195 | 120.67096 | 18845 ft | 438 kts | 141° |
| 2026-04-14 15:38 | 22.08107 | 120.70004 | 19715 ft | 444 kts | 141° |
| 2026-04-14 15:38 | 22.05766 | 120.72206 | 20347 ft | 448 kts | 141° |
| 2026-04-14 15:38 | 22.04179 | 120.73701 | 20766 ft | 452 kts | 141° |
| 2026-04-14 15:39 | 22.01830 | 120.75913 | 21395 ft | 456 kts | 141° |
| 2026-04-14 15:39 | 21.99424 | 120.78176 | 22013 ft | 462 kts | 141° |
| 2026-04-14 15:39 | 21.97009 | 120.80473 | 22612 ft | 463 kts | 138° |
| 2026-04-14 15:39 | 21.95022 | 120.83239 | 22987 ft | 476 kts | 118° |
| 2026-04-14 15:40 | 21.93940 | 120.86623 | 23525 ft | 483 kts | 101° |
| 2026-04-14 15:40 | 21.93718 | 120.90227 | 24036 ft | 486 kts | 84° |
| 2026-04-14 15:40 | 21.94280 | 120.93804 | 24520 ft | 486 kts | 77° |
| 2026-04-14 15:40 | 21.94999 | 120.97382 | 24962 ft | 491 kts | 77° |
| 2026-04-14 15:41 | 21.95721 | 121.00999 | 25438 ft | 495 kts | 77° |
| 2026-04-14 15:41 | 21.96408 | 121.04630 | 25909 ft | 499 kts | 78° |
| 2026-04-14 15:41 | 21.97073 | 121.08318 | 26399 ft | 502 kts | 79° |
| 2026-04-14 15:41 | 21.97728 | 121.12037 | 26845 ft | 506 kts | 78° |
| 2026-04-14 15:42 | 21.98580 | 121.15726 | 27275 ft | 510 kts | 70° |
| 2026-04-14 15:42 | 21.99945 | 121.19258 | 27706 ft | 512 kts | 62° |
| 2026-04-14 15:42 | 22.01720 | 121.22587 | 28145 ft | 514 kts | 54° |
| 2026-04-14 15:42 | 22.03898 | 121.25641 | 28573 ft | 516 kts | 48° |
| 2026-04-14 15:43 | 22.06209 | 121.28609 | 29005 ft | 518 kts | 48° |
| 2026-04-14 15:43 | 22.08534 | 121.31603 | 29393 ft | 522 kts | 49° |
| 2026-04-14 15:43 | 22.10847 | 121.34635 | 29750 ft | 525 kts | 49° |
| 2026-04-14 15:43 | 22.13154 | 121.37709 | 30080 ft | 529 kts | 49° |
| 2026-04-14 15:44 | 22.15463 | 121.40804 | 30428 ft | 530 kts | 50° |
| 2026-04-14 15:44 | 22.17764 | 121.43894 | 30862 ft | 529 kts | 50° |
| 2026-04-14 15:44 | 22.20063 | 121.46983 | 31343 ft | 526 kts | 50° |
| 2026-04-14 15:44 | 22.22352 | 121.50059 | 31849 ft | 525 kts | 50° |
| 2026-04-14 15:45 | 22.24636 | 121.53128 | 32301 ft | 524 kts | 50° |
| 2026-04-14 15:45 | 22.26913 | 121.56190 | 32702 ft | 524 kts | 50° |
| 2026-04-14 15:45 | 22.29197 | 121.59260 | 33097 ft | 524 kts | 50° |
| 2026-04-14 15:45 | 22.31481 | 121.62335 | 33532 ft | 523 kts | 50° |
| 2026-04-14 15:46 | 22.33745 | 121.65385 | 33987 ft | 522 kts | 50° |
| 2026-04-14 15:46 | 22.36016 | 121.68445 | 34366 ft | 521 kts | 50° |
| 2026-04-14 15:46 | 22.38282 | 121.71500 | 34715 ft | 520 kts | 50° |
| 2026-04-14 15:46 | 22.40541 | 121.74548 | 35075 ft | 520 kts | 50° |
| 2026-04-14 15:47 | 22.42796 | 121.77595 | 35416 ft | 519 kts | 50° |
| 2026-04-14 15:47 | 22.45045 | 121.80634 | 35761 ft | 518 kts | 51° |
| 2026-04-14 15:47 | 22.47295 | 121.83678 | 36142 ft | 517 kts | 51° |
| 2026-04-14 15:47 | 22.49544 | 121.86722 | 36412 ft | 518 kts | 51° |
| 2026-04-14 15:48 | 22.51791 | 121.89766 | 36709 ft | 519 kts | 51° |
| 2026-04-14 15:48 | 22.54049 | 121.92824 | 36889 ft | 522 kts | 51° |
| 2026-04-14 15:48 | 22.58583 | 121.98974 | 36915 ft | 522 kts | 51° |
| 2026-04-14 15:49 | 22.63088 | 122.05089 | 36911 ft | 516 kts | 51° |
| 2026-04-14 15:49 | 22.67549 | 122.11157 | 36921 ft | 514 kts | 51° |
| 2026-04-14 15:50 | 22.71999 | 122.17215 | 36927 ft | 514 kts | 51° |
| 2026-04-14 15:50 | 22.76459 | 122.23288 | 36927 ft | 515 kts | 51° |
| 2026-04-14 15:51 | 22.80888 | 122.29331 | 36931 ft | 517 kts | 51° |
| 2026-04-14 15:51 | 22.85382 | 122.35469 | 36928 ft | 518 kts | 51° |
| 2026-04-14 15:52 | 22.89840 | 122.41566 | 36939 ft | 519 kts | 51° |
| 2026-04-14 15:52 | 22.94353 | 122.47748 | 36931 ft | 520 kts | 51° |
| 2026-04-14 15:53 | 22.98827 | 122.53880 | 36932 ft | 521 kts | 51° |
| 2026-04-14 15:53 | 23.03349 | 122.60085 | 36933 ft | 521 kts | 51° |
| 2026-04-14 15:54 | 23.10085 | 122.69342 | 36945 ft | 520 kts | 51° |
| 2026-04-14 15:55 | 23.14547 | 122.75484 | 36937 ft | 521 kts | 51° |
| 2026-04-14 15:55 | 23.19032 | 122.81665 | 36935 ft | 521 kts | 51° |
| 2026-04-14 15:56 | 23.23545 | 122.87892 | 36942 ft | 521 kts | 51° |
| 2026-04-14 15:56 | 23.28023 | 122.94081 | 36942 ft | 520 kts | 51° |
| 2026-04-14 15:57 | 23.32486 | 123.00280 | 36954 ft | 521 kts | 52° |
| 2026-04-14 15:57 | 23.36629 | 123.06678 | 36947 ft | 521 kts | 55° |
| 2026-04-14 15:58 | 23.40698 | 123.13208 | 36944 ft | 521 kts | 55° |
| 2026-04-14 15:58 | 23.44778 | 123.19734 | 36946 ft | 521 kts | 55° |
| 2026-04-14 15:59 | 23.48880 | 123.26253 | 36949 ft | 521 kts | 55° |
| 2026-04-14 15:59 | 23.52987 | 123.32771 | 36945 ft | 522 kts | 55° |
| 2026-04-14 16:00 | 23.57097 | 123.39305 | 36952 ft | 523 kts | 55° |
| 2026-04-14 16:00 | 23.61203 | 123.45843 | 36948 ft | 523 kts | 55° |
| 2026-04-14 16:01 | 23.65314 | 123.52397 | 36951 ft | 523 kts | 55° |
| 2026-04-14 16:01 | 23.69422 | 123.58959 | 36961 ft | 524 kts | 55° |
| 2026-04-14 16:02 | 23.73532 | 123.65530 | 36950 ft | 525 kts | 55° |
| 2026-04-14 16:02 | 23.77657 | 123.72134 | 36949 ft | 526 kts | 55° |
| 2026-04-14 16:03 | 23.81772 | 123.78730 | 36952 ft | 526 kts | 55° |
| 2026-04-14 16:03 | 23.85884 | 123.85332 | 36953 ft | 526 kts | 55° |
| 2026-04-14 16:04 | 23.89998 | 123.91944 | 36960 ft | 526 kts | 55° |
| 2026-04-14 16:04 | 23.94108 | 123.98561 | 36948 ft | 526 kts | 55° |
| 2026-04-14 16:05 | 23.98271 | 124.05142 | 36949 ft | 526 kts | 54° |
| 2026-04-14 16:05 | 24.02492 | 124.11622 | 36956 ft | 526 kts | 53° |
| 2026-04-14 16:06 | 24.06733 | 124.18138 | 36948 ft | 526 kts | 54° |
| 2026-04-14 16:06 | 24.10984 | 124.24713 | 36949 ft | 526 kts | 54° |
| 2026-04-14 16:07 | 24.15170 | 124.31213 | 36950 ft | 525 kts | 54° |
| 2026-04-14 16:07 | 24.19408 | 124.37801 | 36947 ft | 525 kts | 54° |
| 2026-04-14 16:08 | 24.23613 | 124.44342 | 36938 ft | 525 kts | 54° |
| 2026-04-14 16:08 | 24.27815 | 124.50889 | 36950 ft | 525 kts | 54° |
| 2026-04-14 16:09 | 24.32010 | 124.57437 | 36953 ft | 525 kts | 54° |
| 2026-04-14 16:09 | 24.36181 | 124.63952 | 36955 ft | 525 kts | 54° |
| 2026-04-14 16:10 | 24.40375 | 124.70512 | 36950 ft | 526 kts | 54° |
| 2026-04-14 16:10 | 24.44572 | 124.77088 | 36965 ft | 526 kts | 54° |
| 2026-04-14 16:11 | 24.48769 | 124.83671 | 36946 ft | 527 kts | 54° |
| 2026-04-14 16:11 | 24.52968 | 124.90265 | 36962 ft | 527 kts | 54° |
| 2026-04-14 16:12 | 24.57166 | 124.96870 | 36938 ft | 527 kts | 54° |
| 2026-04-14 16:12 | 24.61362 | 125.03479 | 36948 ft | 527 kts | 54° |
| 2026-04-14 16:13 | 24.65558 | 125.10095 | 36934 ft | 528 kts | 54° |
| 2026-04-14 16:13 | 24.69754 | 125.16721 | 36935 ft | 528 kts | 54° |
| 2026-04-14 16:14 | 24.73951 | 125.23360 | 36948 ft | 529 kts | 54° |
| 2026-04-14 16:14 | 24.78147 | 125.30007 | 36953 ft | 529 kts | 55° |
| 2026-04-14 16:15 | 24.82134 | 125.36831 | 36941 ft | 530 kts | 58° |
| 2026-04-14 16:15 | 24.85973 | 125.43756 | 36945 ft | 530 kts | 58° |
| 2026-04-14 16:16 | 24.89832 | 125.50676 | 36940 ft | 531 kts | 58° |
| 2026-04-14 16:16 | 24.93732 | 125.57590 | 36942 ft | 531 kts | 57° |
| 2026-04-14 16:17 | 24.97633 | 125.64483 | 36949 ft | 530 kts | 57° |
| 2026-04-14 16:17 | 25.01536 | 125.71394 | 36946 ft | 531 kts | 57° |
| 2026-04-14 16:18 | 25.05420 | 125.78287 | 36862 ft | 525 kts | 57° |
| 2026-04-14 16:18 | 25.07330 | 125.81683 | 36513 ft | 518 kts | 57° |
| 2026-04-14 16:18 | 25.09231 | 125.85064 | 35819 ft | 519 kts | 57° |
| 2026-04-14 16:18 | 25.11137 | 125.88460 | 34988 ft | 524 kts | 57° |
| 2026-04-14 16:19 | 25.13069 | 125.91898 | 34164 ft | 528 kts | 57° |
| 2026-04-14 16:19 | 25.15002 | 125.95341 | 33453 ft | 527 kts | 57° |
| 2026-04-14 16:19 | 25.16924 | 125.98771 | 32918 ft | 523 kts | 57° |
| 2026-04-14 16:19 | 25.18822 | 126.02161 | 32457 ft | 517 kts | 57° |
| 2026-04-14 16:20 | 25.20075 | 126.04401 | 32140 ft | 514 kts | 56° |
| 2026-04-14 16:20 | 25.21942 | 126.07739 | 31693 ft | 509 kts | 56° |
| 2026-04-14 16:20 | 25.24413 | 126.12159 | 31018 ft | 503 kts | 56° |
| 2026-04-14 16:20 | 25.26245 | 126.15440 | 30513 ft | 500 kts | 56° |
| 2026-04-14 16:21 | 25.27450 | 126.17597 | 30195 ft | 498 kts | 56° |
| 2026-04-14 16:21 | 25.29264 | 126.20844 | 29684 ft | 494 kts | 56° |
| 2026-04-14 16:21 | 25.31060 | 126.24065 | 29155 ft | 490 kts | 56° |
| 2026-04-14 16:21 | 25.33409 | 126.28283 | 28480 ft | 484 kts | 56° |
| 2026-04-14 16:22 | 25.34598 | 126.30421 | 28132 ft | 481 kts | 56° |
| 2026-04-14 16:22 | 25.36341 | 126.33555 | 27627 ft | 477 kts | 56° |
| 2026-04-14 16:22 | 25.38075 | 126.36671 | 27137 ft | 473 kts | 56° |
| 2026-04-14 16:22 | 25.40347 | 126.40759 | 26492 ft | 468 kts | 56° |
| 2026-04-14 16:23 | 25.41491 | 126.42820 | 26178 ft | 466 kts | 56° |
| 2026-04-14 16:23 | 25.43177 | 126.45860 | 25722 ft | 462 kts | 56° |
| 2026-04-14 16:23 | 25.44855 | 126.48884 | 25268 ft | 459 kts | 56° |
| 2026-04-14 16:23 | 25.46516 | 126.51879 | 24842 ft | 455 kts | 56° |
| 2026-04-14 16:24 | 25.48165 | 126.54857 | 24430 ft | 451 kts | 56° |
| 2026-04-14 16:24 | 25.49791 | 126.57812 | 23987 ft | 449 kts | 56° |
| 2026-04-14 16:24 | 25.51414 | 126.60766 | 23469 ft | 448 kts | 56° |
| 2026-04-14 16:24 | 25.53006 | 126.63673 | 22980 ft | 446 kts | 56° |
| 2026-04-14 16:25 | 25.54626 | 126.66633 | 22522 ft | 442 kts | 56° |
| 2026-04-14 16:25 | 25.56213 | 126.69529 | 22079 ft | 438 kts | 56° |
| 2026-04-14 16:25 | 25.57782 | 126.72394 | 21613 ft | 435 kts | 56° |
| 2026-04-14 16:25 | 25.59329 | 126.75220 | 21159 ft | 432 kts | 56° |
| 2026-04-14 16:26 | 25.60882 | 126.78060 | 20716 ft | 429 kts | 56° |
| 2026-04-14 16:26 | 25.62422 | 126.80879 | 20297 ft | 426 kts | 56° |
| 2026-04-14 16:26 | 25.63952 | 126.83679 | 19861 ft | 423 kts | 56° |
| 2026-04-14 16:26 | 25.65471 | 126.86461 | 19429 ft | 421 kts | 56° |
| 2026-04-14 16:27 | 25.66985 | 126.89236 | 18958 ft | 421 kts | 56° |
| 2026-04-14 16:27 | 25.68500 | 126.92012 | 18502 ft | 419 kts | 56° |
| 2026-04-14 16:27 | 25.69999 | 126.94762 | 18069 ft | 417 kts | 56° |
| 2026-04-14 16:27 | 25.71494 | 126.97508 | 17635 ft | 413 kts | 56° |
| 2026-04-14 16:28 | 25.72969 | 127.00221 | 17228 ft | 409 kts | 56° |
| 2026-04-14 16:28 | 25.74430 | 127.02908 | 16844 ft | 405 kts | 56° |
| 2026-04-14 16:28 | 25.75880 | 127.05577 | 16417 ft | 402 kts | 56° |
| 2026-04-14 16:28 | 25.77316 | 127.08221 | 15993 ft | 399 kts | 56° |
| 2026-04-14 16:29 | 25.78740 | 127.10843 | 15581 ft | 395 kts | 56° |
| 2026-04-14 16:29 | 25.80131 | 127.13410 | 14971 ft | 383 kts | 56° |
| 2026-04-14 16:29 | 25.81495 | 127.15926 | 14140 ft | 378 kts | 56° |
| 2026-04-14 16:29 | 25.82851 | 127.18425 | 13203 ft | 377 kts | 56° |
| 2026-04-14 16:30 | 25.84193 | 127.20901 | 12333 ft | 371 kts | 56° |
| 2026-04-14 16:30 | 25.85488 | 127.23298 | 11960 ft | 352 kts | 56° |
| 2026-04-14 16:30 | 25.86710 | 127.25560 | 11723 ft | 331 kts | 56° |
| 2026-04-14 16:30 | 25.87868 | 127.27702 | 11393 ft | 316 kts | 56° |
| 2026-04-14 16:31 | 25.88989 | 127.29747 | 10943 ft | 305 kts | 52° |
| 2026-04-14 16:31 | 25.90465 | 127.31351 | 10375 ft | 293 kts | 25° |
| 2026-04-14 16:31 | 25.92292 | 127.32307 | 9851 ft | 288 kts | 20° |
| 2026-04-14 16:31 | 25.94117 | 127.33211 | 9293 ft | 286 kts | 20° |
| 2026-04-14 16:32 | 25.95914 | 127.34109 | 8890 ft | 279 kts | 20° |
| 2026-04-14 16:32 | 25.97657 | 127.34982 | 8575 ft | 273 kts | 20° |
| 2026-04-14 16:32 | 25.99389 | 127.35851 | 8264 ft | 272 kts | 20° |
| 2026-04-14 16:32 | 26.01111 | 127.36716 | 7971 ft | 272 kts | 20° |
| 2026-04-14 16:33 | 26.02833 | 127.37581 | 7666 ft | 271 kts | 21° |
| 2026-04-14 16:33 | 26.04545 | 127.38445 | 7360 ft | 270 kts | 21° |
| 2026-04-14 16:33 | 26.06260 | 127.39310 | 7064 ft | 270 kts | 21° |
| 2026-04-14 16:33 | 26.07967 | 127.40172 | 6747 ft | 269 kts | 21° |
| 2026-04-14 16:34 | 26.09668 | 127.41030 | 6440 ft | 269 kts | 21° |
| 2026-04-14 16:34 | 26.11369 | 127.41889 | 6134 ft | 269 kts | 22° |
| 2026-04-14 16:34 | 26.13073 | 127.42751 | 5816 ft | 269 kts | 22° |
| 2026-04-14 16:34 | 26.14773 | 127.43614 | 5493 ft | 268 kts | 21° |
| 2026-04-14 16:35 | 26.16466 | 127.44471 | 5200 ft | 268 kts | 21° |
| 2026-04-14 16:35 | 26.18158 | 127.45328 | 4887 ft | 266 kts | 22° |
| 2026-04-14 16:35 | 26.19841 | 127.46182 | 4590 ft | 266 kts | 22° |
| 2026-04-14 16:35 | 26.21522 | 127.47035 | 4267 ft | 266 kts | 21° |
| 2026-04-14 16:36 | 26.23206 | 127.47888 | 3970 ft | 265 kts | 22° |
| 2026-04-14 16:36 | 26.24878 | 127.48736 | 3674 ft | 264 kts | 22° |
| 2026-04-14 16:36 | 26.26551 | 127.49586 | 3370 ft | 264 kts | 22° |
| 2026-04-14 16:36 | 26.28220 | 127.50433 | 3059 ft | 264 kts | 22° |
| 2026-04-14 16:37 | 26.29885 | 127.51279 | 2761 ft | 262 kts | 22° |
| 2026-04-14 16:37 | 26.31539 | 127.52120 | 2449 ft | 260 kts | 22° |
| 2026-04-14 16:37 | 26.33039 | 127.53144 | 2130 ft | 258 kts | 45° |
| 2026-04-14 16:37 | 26.33883 | 127.54852 | 1824 ft | 248 kts | 77° |
| 2026-04-14 16:38 | 26.34036 | 127.56673 | 1672 ft | 226 kts | 88° |
| 2026-04-14 16:38 | 26.34098 | 127.58366 | 1625 ft | 211 kts | 88° |
| 2026-04-14 16:38 | 26.34135 | 127.59921 | 1475 ft | 191 kts | 96° |
| 2026-04-14 16:38 | 26.33681 | 127.61193 | 1401 ft | 175 kts | 132° |
| 2026-04-14 16:39 | 26.32748 | 127.62100 | 1396 ft | 174 kts | 160° |
| 2026-04-14 16:39 | 26.31628 | 127.62371 | 1408 ft | 165 kts | 175° |
| 2026-04-14 16:39 | 26.30489 | 127.62584 | 1399 ft | 166 kts | 174° |
| 2026-04-14 16:39 | 26.29349 | 127.62730 | 1392 ft | 164 kts | 179° |
| 2026-04-14 16:40 | 26.28246 | 127.62802 | 1393 ft | 154 kts | 181° |
| 2026-04-14 16:40 | 26.27190 | 127.62863 | 1382 ft | 154 kts | 181° |
| 2026-04-14 16:40 | 26.26127 | 127.62923 | 1156 ft | 149 kts | 181° |
| 2026-04-14 16:40 | 26.25110 | 127.62986 | 966 ft | 144 kts | 181° |
| 2026-04-14 16:41 | 26.24108 | 127.63043 | 795 ft | 144 kts | 180° |
| 2026-04-14 16:41 | 26.23111 | 127.63102 | 629 ft | 143 kts | 179° |
| 2026-04-14 16:41 | 26.22118 | 127.63166 | 425 ft | 142 kts | 179° |
| 2026-04-14 16:41 | 26.21130 | 127.63212 | 237 ft | 142 kts | 180° |
| 2026-04-14 16:42 | 26.20146 | 127.63252 | 47 ft | 142 kts | 180° |
| 2026-04-14 16:42 | 26.19247 | 127.63292 | 22 ft | 107 kts | 177° |
| 2026-04-14 16:42 | 26.18739 | 127.63314 | 20 ft | 39 kts | 177° |
| 2026-04-14 16:42 | 26.18553 | 127.63342 | 24 ft | 23 kts | 162° |
| 2026-04-14 16:43 | 26.18416 | 127.63415 | 25 ft | 18 kts | 149° |
| 2026-04-14 16:43 | 26.18366 | 127.63482 | 23 ft | 9 kts | 87° |
| 2026-04-14 16:43 | 26.18420 | 127.63521 | 23 ft | 11 kts | 2° |
| 2026-04-14 16:43 | 26.18505 | 127.63516 | 25 ft | 13 kts | 356° |
| 2026-04-14 16:44 | 26.18606 | 127.63511 | 24 ft | 16 kts | 358° |
| 2026-04-14 16:44 | 26.18722 | 127.63506 | 23 ft | 18 kts | 357° |
| 2026-04-14 16:44 | 26.18854 | 127.63499 | 22 ft | 20 kts | 358° |
| 2026-04-14 16:45 | 26.19157 | 127.63485 | 27 ft | 23 kts | 357° |
| 2026-04-14 16:45 | 26.19326 | 127.63477 | 23 ft | 25 kts | 358° |
| 2026-04-14 16:45 | 26.19474 | 127.63470 | 23 ft | 21 kts | 358° |
| 2026-04-14 16:45 | 26.19623 | 127.63463 | 24 ft | 22 kts | 358° |
| 2026-04-14 16:46 | 26.19784 | 127.63456 | 23 ft | 24 kts | 357° |
| 2026-04-14 16:46 | 26.19948 | 127.63448 | 23 ft | 20 kts | 357° |
| 2026-04-14 16:46 | 26.20057 | 127.63443 | 25 ft | 15 kts | 358° |
| 2026-04-14 16:46 | 26.20161 | 127.63438 | 24 ft | 11 kts | 358° |
| 2026-04-14 16:47 | 26.20210 | 127.63467 | 23 ft | 9 kts | 65° |
| 2026-04-14 16:47 | 26.20217 | 127.63543 | 25 ft | 11 kts | 87° |
| 2026-04-14 16:47 | 26.20221 | 127.63636 | 25 ft | 13 kts | 88° |
| 2026-04-14 16:47 | 26.20225 | 127.63747 | 25 ft | 15 kts | 87° |
| 2026-04-14 16:48 | 26.20230 | 127.63874 | 22 ft | 17 kts | 88° |
| 2026-04-14 16:48 | 26.20235 | 127.64015 | 24 ft | 19 kts | 87° |
| 2026-04-14 16:48 | 26.20241 | 127.64171 | 24 ft | 21 kts | 88° |
| 2026-04-14 16:48 | 26.20246 | 127.64287 | 24 ft | 10 kts | 81° |
| 2026-04-14 16:49 | 26.20305 | 127.64320 | 24 ft | 11 kts | 360° |
| 2026-04-14 16:49 | 26.20390 | 127.64316 | 25 ft | 13 kts | 357° |
| 2026-04-14 16:49 | 26.20492 | 127.64311 | 24 ft | 16 kts | 357° |
| 2026-04-14 16:49 | 26.20607 | 127.64323 | 24 ft | 18 kts | 12° |
| 2026-04-14 16:50 | 26.20734 | 127.64354 | 23 ft | 20 kts | 12° |
| 2026-04-14 16:50 | 26.20868 | 127.64391 | 24 ft | 16 kts | 24° |
| 2026-04-14 16:50 | 26.20938 | 127.64486 | 26 ft | 17 kts | 71° |
| 2026-04-14 16:50 | 26.20975 | 127.64615 | 23 ft | 17 kts | 82° |
| 2026-04-14 16:51 | 26.20982 | 127.64709 | 26 ft | 8 kts | 76° |
| 2026-04-14 16:51 | 26.21029 | 127.64748 | 25 ft | 10 kts | 12° |
| 2026-04-14 16:51 | 26.21105 | 127.64749 | 26 ft | 12 kts | 358° |
| 2026-04-14 16:51 | 26.21196 | 127.64745 | 25 ft | 14 kts | 358° |
| 2026-04-14 16:52 | 26.21287 | 127.64749 | 28 ft | 10 kts | 24° |
| 2026-04-14 16:52 | 26.21310 | 127.64820 | 26 ft | 11 kts | 104° |
| 2026-04-14 16:52 | 26.21253 | 127.64869 | 26 ft | 11 kts | 169° |
| 2026-04-14 16:52 | 26.21168 | 127.64876 | 31 ft | 13 kts | 177° |
| 2026-04-14 16:53 | 26.21077 | 127.64881 | 28 ft | 12 kts | 177° |
| 2026-04-14 16:53 | 26.21020 | 127.64887 | 28 ft | 5 kts | 160° |
| 2026-04-14 16:53 | 26.21007 | 127.64918 | 25 ft | 5 kts | 98° |
| 2026-04-14 16:53 | 26.21006 | 127.64956 | 31 ft | 3 kts | 88° |
| 2026-04-14 16:54 | 26.21006 | 127.64967 | 26 ft | 1 kts | 88° |
| 2026-04-14 16:54 | 26.21006 | 127.64969 | 26 ft | 0 kts | 88° |